Terminal Aerodrome Forecast
Issued by NWS Hastings, NE

Home | Current Version | Previous Version | Text Only | Print | Product List | Glossary On
Versions: 1 2 3 4 5 6 7 8 9 10 11 12 13 14 15 16 17 18
000
FTUS45 KGID 220537
TAFEAR
TAF
KEAR 220537Z 2206/2306 34007KT P6SM SCT200
     FM221600 33011KT P6SM SCT200
     FM221900 33015G23KT P6SM FEW200
     FM222300 32009KT P6SM FEW250
     FM230100 32005KT P6SM SKC
      AMD LTD TO CLD VIS AND WIND=

USA.gov is the U.S. government's official web portal to all federal, state and local government web resources and services.